createdAt,value
2023-04-19T00:02:13.504Z,5.22
2023-04-19T00:04:40.576Z,5.60
2023-04-19T00:07:07.719Z,5.13
2023-04-19T00:09:34.680Z,4.88
2023-04-19T00:12:02.254Z,5.05
2023-04-19T00:14:29.427Z,4.40
2023-04-19T00:16:56.439Z,4.78
2023-04-19T00:19:23.494Z,5.90
2023-04-19T00:21:50.521Z,5.13
2023-04-19T00:24:18.187Z,4.60
2023-04-19T00:26:45.922Z,5.00
2023-04-19T00:29:12.840Z,3.95
2023-04-19T00:31:40.110Z,4.32
2023-04-19T00:34:07.322Z,4.72
2023-04-19T00:36:34.356Z,4.40
2023-04-19T00:39:01.303Z,4.82
2023-04-19T00:41:28.285Z,4.43
2023-04-19T00:43:55.439Z,4.50
2023-04-19T00:46:23.504Z,4.13
2023-04-19T00:48:51.133Z,4.10
2023-04-19T00:51:18.653Z,3.95
2023-04-19T00:53:46.423Z,4.13
2023-04-19T00:56:14.913Z,4.15
2023-04-19T00:58:41.864Z,3.88
2023-04-19T01:01:09.697Z,3.72
2023-04-19T01:03:37.125Z,4.30
2023-04-19T01:06:04.441Z,3.88
2023-04-19T01:08:31.436Z,3.83
2023-04-19T01:10:58.396Z,3.88
2023-04-19T01:13:25.409Z,3.78
2023-04-19T01:15:52.455Z,3.75
2023-04-19T01:18:21.873Z,3.80
2023-04-19T01:20:48.790Z,3.50
2023-04-19T01:23:15.811Z,3.70
2023-04-19T01:25:43.030Z,3.70
2023-04-19T01:28:09.996Z,4.25
2023-04-19T01:30:37.226Z,3.63
2023-04-19T01:33:04.169Z,3.35
2023-04-19T01:35:31.146Z,3.13
2023-04-19T01:37:58.179Z,3.92
2023-04-19T01:40:26.219Z,3.67
2023-04-19T01:42:53.451Z,3.50
2023-04-19T01:45:20.595Z,3.47
2023-04-19T01:47:51.775Z,3.63
2023-04-19T01:50:18.894Z,3.40
2023-04-19T01:52:45.821Z,3.47
2023-04-19T01:55:12.824Z,3.67
2023-04-19T01:57:39.747Z,3.33
2023-04-19T02:00:08.868Z,3.42
2023-04-19T02:02:42.149Z,3.60
2023-04-19T02:05:10.662Z,3.75
2023-04-19T02:07:37.865Z,3.33
2023-04-19T02:10:06.325Z,3.42
2023-04-19T02:12:34.674Z,3.38
2023-04-19T02:15:03.356Z,3.38
2023-04-19T02:17:30.838Z,3.28
2023-04-19T02:19:59.675Z,2.78
2023-04-19T02:22:27.358Z,3.20
2023-04-19T02:24:54.353Z,3.63
2023-04-19T02:27:27.434Z,3.13
2023-04-19T02:29:54.780Z,3.25
2023-04-19T02:32:21.956Z,3.00
2023-04-19T02:34:48.976Z,3.15
2023-04-19T02:37:15.888Z,3.40
2023-04-19T02:39:42.881Z,3.40
2023-04-19T02:42:09.808Z,3.10
2023-04-19T02:44:36.760Z,2.92
2023-04-19T02:47:03.776Z,2.92
2023-04-19T02:49:36.979Z,2.75
2023-04-19T02:54:33.752Z,3.08
2023-04-19T02:57:01.189Z,3.28
2023-04-19T02:59:28.283Z,2.95
2023-04-19T03:01:58.150Z,3.17
2023-04-19T03:04:25.856Z,3.30
2023-04-19T03:06:53.198Z,4.03
2023-04-19T03:09:20.798Z,3.10
2023-04-19T03:11:47.775Z,3.08
2023-04-19T03:14:16.425Z,2.97
2023-04-19T03:16:43.617Z,3.30
2023-04-19T03:19:10.793Z,3.35
2023-04-19T03:21:45.128Z,3.25
2023-04-19T03:24:13.257Z,2.65
2023-04-19T03:26:45.280Z,2.88
2023-04-19T03:29:14.441Z,4.18
2023-04-19T03:32:01.632Z,3.70
2023-04-19T03:34:30.105Z,2.72
2023-04-19T03:36:57.051Z,2.78
2023-04-19T03:39:24.995Z,3.03
2023-04-19T03:41:57.727Z,3.03
2023-04-19T03:44:38.090Z,3.15
2023-04-19T03:47:07.576Z,3.13
2023-04-19T03:49:41.368Z,3.28
2023-04-19T03:52:08.377Z,3.25
2023-04-19T03:54:35.362Z,3.15
2023-04-19T03:57:04.394Z,3.03
2023-04-19T03:59:31.893Z,3.22
2023-04-19T04:01:59.879Z,3.22
2023-04-19T04:04:27.077Z,3.42
2023-04-19T04:06:55.864Z,3.17
2023-04-19T04:09:22.915Z,2.63
2023-04-19T04:11:50.483Z,3.08
2023-04-19T04:14:17.552Z,2.85
2023-04-19T04:16:46.476Z,3.33
2023-04-19T04:19:17.153Z,2.95
2023-04-19T04:21:45.116Z,3.10
2023-04-19T04:24:13.417Z,3.05
2023-04-19T04:26:52.068Z,3.20
2023-04-19T04:29:29.104Z,3.25
2023-04-19T04:31:59.043Z,3.20
2023-04-19T04:34:33.084Z,3.22
2023-04-19T04:37:08.949Z,3.20
2023-04-19T04:39:39.232Z,2.95
2023-04-19T04:42:10.473Z,3.53
2023-04-19T04:44:38.975Z,3.47
2023-04-19T04:47:08.517Z,3.70
2023-04-19T04:49:42.034Z,3.47
2023-04-19T04:52:09.534Z,4.05
2023-04-19T04:54:44.816Z,3.17
2023-04-19T04:57:21.962Z,3.42
2023-04-19T04:59:48.987Z,3.40
2023-04-19T05:02:18.749Z,3.85
2023-04-19T05:04:45.873Z,3.45
2023-04-19T05:07:13.225Z,3.55
2023-04-19T05:09:40.565Z,3.35
2023-04-19T05:12:07.715Z,3.33
2023-04-19T05:14:35.512Z,3.70
2023-04-19T05:17:04.730Z,4.03
2023-04-19T05:19:32.948Z,3.88
2023-04-19T05:22:05.770Z,4.28
2023-04-19T05:24:32.919Z,3.65
2023-04-19T05:27:01.824Z,3.45
2023-04-19T05:29:28.781Z,5.38
2023-04-19T05:31:57.952Z,5.50
2023-04-19T05:34:31.488Z,3.97
2023-04-19T05:37:00.513Z,4.93
2023-04-19T05:39:27.512Z,4.22
2023-04-19T05:41:54.521Z,4.65
2023-04-19T05:44:21.637Z,4.28
2023-04-19T05:46:48.773Z,4.97
2023-04-19T05:49:24.955Z,3.83
2023-04-19T06:24:07.980Z,4.30
2023-04-19T06:26:35.141Z,4.63
2023-04-19T06:29:02.061Z,4.75
2023-04-19T06:31:29.135Z,3.97
2023-04-19T06:33:56.175Z,4.65
2023-04-19T06:36:23.137Z,4.22
2023-04-19T06:38:50.393Z,5.18
2023-04-19T16:57:49.448Z,12.52
2023-04-19T17:00:16.849Z,12.43
2023-04-19T17:02:43.900Z,11.60
2023-04-19T17:05:12.544Z,12.65
2023-04-19T17:07:39.782Z,12.38
2023-04-19T17:10:07.321Z,12.32
2023-04-19T17:12:34.350Z,12.70
2023-04-19T17:15:02.128Z,11.63
2023-04-19T17:17:29.093Z,12.30
2023-04-19T17:19:56.920Z,11.07
2023-04-19T17:22:24.025Z,11.27
2023-04-19T17:24:51.006Z,10.90
2023-04-19T17:27:17.918Z,10.55
2023-04-19T17:29:49.428Z,11.50
2023-04-19T17:32:17.215Z,12.02
2023-04-19T17:34:44.150Z,11.30
2023-04-19T17:37:11.055Z,11.60
2023-04-19T17:39:37.992Z,11.32
2023-04-19T17:42:04.941Z,11.57
2023-04-19T17:44:31.839Z,10.63
2023-04-19T17:46:58.795Z,13.68
2023-04-19T17:49:27.085Z,10.75
2023-04-19T17:51:56.231Z,11.75
2023-04-19T17:54:23.316Z,11.50
2023-04-19T17:56:52.499Z,11.32
2023-04-19T17:59:19.596Z,12.63
2023-04-19T18:01:46.687Z,12.63
2023-04-19T18:04:17.971Z,13.45
2023-04-19T18:06:46.389Z,12.48
2023-04-19T18:09:14.788Z,14.10
2023-04-19T18:11:42.053Z,13.98
2023-04-19T18:14:09.155Z,14.57
2023-04-19T18:16:36.271Z,14.52
2023-04-19T18:19:03.324Z,17.13
2023-04-19T18:21:30.406Z,15.20
2023-04-19T18:23:57.316Z,15.35
2023-04-19T18:26:24.414Z,16.27
2023-04-19T18:28:51.388Z,16.00
2023-04-19T18:31:18.361Z,15.30
2023-04-19T18:33:45.334Z,15.27
2023-04-19T18:36:12.407Z,16.00
2023-04-19T18:38:39.400Z,16.15
2023-04-19T18:41:06.529Z,14.98
2023-04-19T18:43:33.678Z,17.17
2023-04-19T18:46:01.359Z,16.85
2023-04-19T18:48:29.884Z,16.15
2023-04-19T18:50:57.438Z,20.52
2023-04-19T18:53:28.592Z,20.48
2023-04-19T18:55:59.249Z,18.85
2023-04-19T18:58:27.234Z,17.77
2023-04-19T19:00:54.946Z,19.88
2023-04-19T19:05:58.490Z,16.15
2023-04-19T19:08:26.157Z,15.65
2023-04-19T19:13:23.617Z,14.05
2023-04-19T19:15:51.019Z,14.95
2023-04-19T19:18:18.548Z,14.40
2023-04-19T19:20:46.328Z,15.20
2023-04-19T19:23:13.714Z,15.30
2023-04-19T19:25:42.330Z,15.10
2023-04-19T19:28:11.321Z,14.55
2023-04-19T19:30:43.163Z,14.52
2023-04-19T19:33:11.304Z,13.40
2023-04-19T19:35:39.952Z,13.10
2023-04-19T19:38:07.129Z,12.43
2023-04-19T19:40:34.744Z,13.38
2023-04-19T19:43:02.108Z,13.20
2023-04-19T19:45:30.469Z,11.85
2023-04-19T19:47:59.241Z,11.40
2023-04-19T19:52:58.625Z,12.68
2023-04-19T19:55:25.912Z,11.93
2023-04-19T20:00:42.752Z,12.90
2023-04-19T20:03:11.512Z,11.68
2023-04-19T20:05:39.756Z,12.55
2023-04-19T20:08:12.675Z,12.23
2023-04-19T20:10:42.405Z,12.35
2023-04-19T20:13:09.764Z,13.27
2023-04-19T20:15:37.826Z,12.25
2023-04-19T20:18:05.512Z,12.20
2023-04-19T20:20:33.118Z,11.55
2023-04-19T20:23:00.405Z,11.30
2023-04-19T20:25:27.483Z,10.55
2023-04-19T20:27:55.083Z,10.65
2023-04-19T20:30:22.066Z,12.23
2023-04-19T20:32:50.426Z,12.23
2023-04-19T20:35:18.092Z,11.48
2023-04-19T20:37:46.902Z,11.65
2023-04-19T20:40:16.084Z,11.63
2023-04-19T20:42:44.211Z,11.88
2023-04-19T20:45:11.519Z,11.05
2023-04-19T20:47:38.895Z,10.82
2023-04-19T20:50:07.164Z,11.57
2023-04-19T20:52:34.774Z,11.20
2023-04-19T20:55:01.737Z,10.90
2023-04-19T20:57:28.723Z,10.60
2023-04-19T20:59:55.646Z,9.60
2023-04-19T21:02:22.865Z,10.70
2023-04-19T21:04:49.946Z,10.25
2023-04-19T21:07:17.081Z,10.13
2023-04-19T21:09:44.011Z,10.75
2023-04-19T21:12:10.958Z,10.57
2023-04-19T21:14:37.974Z,9.90
2023-04-19T21:17:04.962Z,10.75
2023-04-19T21:19:32.033Z,10.20
2023-04-19T21:21:59.330Z,10.95
2023-04-19T21:24:26.370Z,10.40
2023-04-19T21:26:53.339Z,10.15
2023-04-19T21:29:21.072Z,10.18
2023-04-19T21:31:48.113Z,10.95
2023-04-19T21:34:15.409Z,10.48
2023-04-19T21:36:42.468Z,11.30
2023-04-19T21:39:10.344Z,10.18
2023-04-19T21:41:38.262Z,10.63
2023-04-19T21:44:05.353Z,9.55
2023-04-19T21:46:33.403Z,9.65
2023-04-19T21:49:00.428Z,11.02
2023-04-19T21:51:27.612Z,10.02
2023-04-19T21:53:54.585Z,11.40
2023-04-19T21:56:21.506Z,10.55
2023-04-19T21:58:48.542Z,9.80
2023-04-19T22:01:15.546Z,10.13
2023-04-19T22:03:42.770Z,9.13
2023-04-19T22:06:10.260Z,9.70
2023-04-19T22:08:37.235Z,9.98
2023-04-19T22:11:04.415Z,9.55
2023-04-19T22:13:33.406Z,9.90
2023-04-19T22:18:29.188Z,9.50
2023-04-19T22:20:56.136Z,9.60
2023-04-19T22:23:23.157Z,10.60
2023-04-19T22:25:50.086Z,9.77
2023-04-19T22:28:17.054Z,10.38
2023-04-19T22:30:44.024Z,9.95
2023-04-19T22:33:11.714Z,10.02
2023-04-19T22:35:38.664Z,10.50
2023-04-19T22:38:05.614Z,9.20
2023-04-19T22:40:32.560Z,9.35
2023-04-19T22:42:59.465Z,9.98
2023-04-19T22:45:26.478Z,9.20
2023-04-19T22:47:53.924Z,9.35
2023-04-19T22:50:23.866Z,9.27
2023-04-19T22:52:51.326Z,10.45
2023-04-19T22:55:18.256Z,9.13
2023-04-19T22:57:45.170Z,9.85
2023-04-19T23:00:12.644Z,8.98
2023-04-19T23:02:39.734Z,9.23
2023-04-19T23:05:07.130Z,9.43
2023-04-19T23:07:34.446Z,9.38
2023-04-19T23:10:03.105Z,9.70
2023-04-19T23:12:31.303Z,9.40
2023-04-19T23:14:58.409Z,9.38
2023-04-19T23:17:25.677Z,8.63
2023-04-19T23:19:53.066Z,9.35
2023-04-19T23:22:20.101Z,9.73
2023-04-19T23:24:47.018Z,8.38
2023-04-19T23:27:14.181Z,9.68
2023-04-19T23:29:41.131Z,9.75
2023-04-19T23:32:08.091Z,9.10
2023-04-19T23:34:35.150Z,9.48
2023-04-19T23:37:02.170Z,8.38
2023-04-19T23:39:29.118Z,8.73
2023-04-19T23:41:56.150Z,8.68
2023-04-19T23:44:23.086Z,8.57
2023-04-19T23:46:50.069Z,9.05
2023-04-19T23:49:17.200Z,9.68
2023-04-19T23:51:44.662Z,9.88
2023-04-19T23:54:11.829Z,8.82
2023-04-19T23:56:38.733Z,9.52
2023-04-19T23:59:05.750Z,9.40
